Time;durP1;ratioP1;P1;durP2;ratioP2;P2;SDS_P1;SDS_P2;PMS_P1;PMS_P2;Temp;Humidity;BMP_temperature;BMP_pressure;BME280_temperature;BME280_humidity;BME280_pressure;Samples;Min_cycle;Max_cycle;Signal;HPM_P1;HPM_P2
2021/05/28 06:54:08;;;;;;;16.93;12.47;;;11.70;98.30;;;;;;4032669;29;20505;-81
2021/05/28 06:56:11;;;;;;;116.13;72.57;;;11.80;98.30;;;;;;4039134;29;20465;-81
2021/05/28 06:58:13;;;;;;;16.23;10.83;;;11.70;98.30;;;;;;4039585;29;20469;-81
2021/05/28 07:00:17;;;;;;;12.80;8.70;;;11.70;98.30;;;;;;4033810;29;20561;-80
2021/05/28 07:02:19;;;;;;;13.93;10.80;;;11.70;98.30;;;;;;4038624;29;20496;-81
2021/05/28 07:04:22;;;;;;;19.77;10.90;;;11.70;98.30;;;;;;4035951;29;20472;-79
2021/05/28 07:06:24;;;;;;;17.00;9.97;;;11.80;98.30;;;;;;4039735;29;20497;-81
2021/05/28 07:08:26;;;;;;;16.20;11.07;;;11.80;98.30;;;;;;4039634;29;20579;-81
2021/05/28 07:10:30;;;;;;;14.03;10.00;;;11.90;98.30;;;;;;4041917;29;20495;-81
2021/05/28 07:12:33;;;;;;;18.80;8.70;;;11.80;98.30;;;;;;4046708;29;20492;-80
2021/05/28 07:14:35;;;;;;;16.47;8.90;;;11.90;98.30;;;;;;4048460;29;20524;-81
2021/05/28 07:16:38;;;;;;;20.60;9.77;;;11.80;98.30;;;;;;4048740;29;20508;-80
2021/05/28 07:18:40;;;;;;;12.20;8.83;;;11.80;98.30;;;;;;4049537;29;20905;-80
2021/05/28 07:20:42;;;;;;;16.47;9.53;;;11.90;98.30;;;;;;4043165;29;20485;-81
2021/05/28 07:22:45;;;;;;;13.00;9.23;;;11.90;98.30;;;;;;4047435;29;20495;-80
2021/05/28 07:24:48;;;;;;;16.67;10.33;;;11.90;98.30;;;;;;4052264;29;20532;-80
2021/05/28 07:26:51;;;;;;;21.00;11.20;;;11.80;98.30;;;;;;4052537;29;20477;-80
2021/05/28 07:28:53;;;;;;;20.27;13.60;;;11.70;98.30;;;;;;4053068;29;20469;-80
2021/05/28 07:30:56;;;;;;;21.87;13.67;;;11.80;98.30;;;;;;4052988;29;20492;-81
2021/05/28 07:32:59;;;;;;;25.83;15.20;;;11.80;98.30;;;;;;4052144;29;20504;-80
2021/05/28 07:35:01;;;;;;;16.33;11.73;;;11.90;98.30;;;;;;4051308;29;20496;-80
2021/05/28 07:37:04;;;;;;;29.10;12.47;;;12.10;98.30;;;;;;4049041;29;20484;-80
2021/05/28 07:39:07;;;;;;;21.20;14.67;;;12.20;98.30;;;;;;4047018;29;20548;-80
2021/05/28 07:41:12;;;;;;;17.07;10.33;;;12.20;98.30;;;;;;4045480;29;20489;-79
2021/05/28 07:43:15;;;;;;;12.57;9.50;;;12.20;98.30;;;;;;4043179;29;20527;-80
2021/05/28 07:45:17;;;;;;;16.97;10.27;;;12.30;98.30;;;;;;4045318;29;20492;-80
2021/05/28 07:47:20;;;;;;;15.77;11.50;;;12.30;98.30;;;;;;4042726;29;20508;-80
2021/05/28 07:49:22;;;;;;;14.27;11.20;;;12.30;98.30;;;;;;4032815;29;20540;-81
2021/05/28 07:51:25;;;;;;;20.53;12.77;;;12.50;98.30;;;;;;4039542;29;20472;-80
2021/05/28 07:53:28;;;;;;;20.10;13.30;;;12.50;98.30;;;;;;4040636;29;21046;-81
2021/05/28 07:55:30;;;;;;;19.47;12.67;;;12.50;98.30;;;;;;4037482;29;20481;-81
2021/05/28 07:57:33;;;;;;;38.43;27.23;;;12.50;98.30;;;;;;4040622;29;20521;-81
2021/05/28 07:59:36;;;;;;;33.40;24.40;;;12.60;98.30;;;;;;4040794;29;20477;-81
2021/05/28 08:01:39;;;;;;;73.67;47.73;;;12.60;98.30;;;;;;4039516;29;20477;-80
2021/05/28 08:03:41;;;;;;;25.90;19.83;;;12.70;98.30;;;;;;4040231;29;21054;-80
2021/05/28 08:05:48;;;;;;;23.20;16.17;;;12.70;98.30;;;;;;4039510;29;21017;-81
2021/05/28 08:07:51;;;;;;;16.87;15.07;;;12.70;98.30;;;;;;4039122;29;20487;-80
2021/05/28 08:09:56;;;;;;;16.53;13.30;;;12.70;98.30;;;;;;4039476;29;20476;-81
2021/05/28 08:11:58;;;;;;;16.60;13.50;;;12.60;98.30;;;;;;4039478;29;20480;-81
2021/05/28 08:14:01;;;;;;;19.67;12.13;;;12.70;98.30;;;;;;4039180;29;20477;-79
2021/05/28 08:16:04;;;;;;;14.03;9.63;;;12.90;98.30;;;;;;4039598;29;20485;-81
2021/05/28 08:18:08;;;;;;;14.43;9.07;;;13.00;98.30;;;;;;4035742;29;20512;-79
2021/05/28 08:20:14;;;;;;;16.90;9.70;;;13.00;98.30;;;;;;4034532;29;20485;-80
2021/05/28 08:22:17;;;;;;;13.27;10.10;;;13.00;98.30;;;;;;4039148;29;20496;-81
2021/05/28 08:24:19;;;;;;;15.17;10.20;;;12.90;98.30;;;;;;4037670;29;21007;-80
2021/05/28 08:26:22;;;;;;;13.40;11.83;;;12.90;98.30;;;;;;4037753;29;20552;-80
2021/05/28 08:28:24;;;;;;;14.07;12.17;;;12.90;98.30;;;;;;4039700;29;20989;-81
2021/05/28 08:30:27;;;;;;;16.33;11.93;;;13.00;98.30;;;;;;4039920;29;21387;-81
2021/05/28 08:32:30;;;;;;;17.90;12.70;;;13.10;98.30;;;;;;4039710;29;20496;-81
2021/05/28 08:34:33;;;;;;;15.97;14.07;;;13.30;98.30;;;;;;4038418;29;20838;-81
2021/05/28 08:36:35;;;;;;;23.30;14.90;;;13.40;98.30;;;;;;4039527;29;20473;-80
2021/05/28 08:38:38;;;;;;;19.03;12.77;;;13.50;98.30;;;;;;4038691;29;20974;-80
2021/05/28 08:40:40;;;;;;;16.90;14.13;;;13.30;98.30;;;;;;4039138;29;20469;-81
2021/05/28 08:42:44;;;;;;;16.60;13.70;;;13.20;98.30;;;;;;4038334;29;20496;-81
2021/05/28 08:44:48;;;;;;;15.20;13.63;;;13.30;98.30;;;;;;4039039;29;20559;-80
2021/05/28 08:46:50;;;;;;;17.07;13.73;;;13.50;98.30;;;;;;4035091;29;20485;-80
2021/05/28 08:48:54;;;;;;;15.97;13.37;;;13.60;98.30;;;;;;4038322;29;20480;-81
2021/05/28 08:50:56;;;;;;;26.60;18.43;;;13.50;98.30;;;;;;4033834;29;20485;-80
2021/05/28 08:53:01;;;;;;;23.23;16.70;;;13.50;98.30;;;;;;4033844;29;20509;-80
2021/05/28 08:55:04;;;;;;;31.37;23.10;;;13.70;98.30;;;;;;4039925;29;20552;-79
2021/05/28 08:57:06;;;;;;;16.87;12.57;;;13.90;98.30;;;;;;4039573;29;20480;-80
2021/05/28 08:59:09;;;;;;;14.60;12.40;;;13.90;98.30;;;;;;4038723;29;20510;-80
2021/05/28 09:01:12;;;;;;;20.60;13.23;;;13.90;98.30;;;;;;4039562;29;20519;-79
2021/05/28 09:03:23;;;;;;;14.40;11.50;;;14.10;98.30;;;;;;4040476;29;20500;-79
2021/05/28 09:05:31;;;;;;;15.93;10.60;;;14.30;98.30;;;;;;4039467;29;20475;-80
2021/05/28 09:07:34;;;;;;;12.50;9.57;;;14.50;98.30;;;;;;4039303;29;20485;-80
2021/05/28 09:09:36;;;;;;;13.77;10.30;;;14.60;98.30;;;;;;4040319;29;20821;-80
2021/05/28 09:11:56;;;;;;;13.47;10.33;;;14.70;98.30;;;;;;4037816;29;20476;-79
2021/05/28 09:13:58;;;;;;;12.00;10.20;;;14.60;98.30;;;;;;4040048;29;20472;-80
2021/05/28 09:16:07;;;;;;;15.90;11.77;;;14.50;98.30;;;;;;4038145;29;20488;-80
2021/05/28 09:18:10;;;;;;;14.20;10.43;;;14.60;98.30;;;;;;4040370;29;20490;-79
2021/05/28 09:20:12;;;;;;;13.03;10.40;;;14.50;98.30;;;;;;4040142;29;20934;-79
2021/05/28 09:22:16;;;;;;;14.57;11.83;;;14.40;98.30;;;;;;4038119;29;20501;-81
2021/05/28 09:24:28;;;;;;;13.07;10.77;;;14.50;98.30;;;;;;4037866;29;20516;-79
2021/05/28 09:26:32;;;;;;;15.27;12.53;;;14.30;98.30;;;;;;4040925;29;20477;-80
2021/05/28 09:28:41;;;;;;;16.60;11.03;;;14.20;98.30;;;;;;4040639;29;20463;-80
2021/05/28 09:30:52;;;;;;;12.70;10.47;;;14.00;98.30;;;;;;4040370;29;20480;-80
2021/05/28 09:32:56;;;;;;;15.20;11.67;;;13.80;98.30;;;;;;4040866;29;20510;-79
2021/05/28 09:34:59;;;;;;;23.87;15.67;;;13.80;98.30;;;;;;4040045;29;20483;-79
2021/05/28 09:37:10;;;;;;;29.57;19.17;;;13.70;98.30;;;;;;4041125;29;20488;-79
2021/05/28 09:39:15;;;;;;;82.73;48.93;;;13.80;98.30;;;;;;4043953;29;20469;-81
2021/05/28 09:41:37;;;;;;;21.57;13.50;;;13.70;98.30;;;;;;4031991;29;20571;-79
2021/05/28 09:43:40;;;;;;;12.57;10.37;;;13.80;98.30;;;;;;4040300;29;20492;-79
2021/05/28 09:45:42;;;;;;;20.73;11.23;;;14.10;98.30;;;;;;4037958;29;20485;-80
2021/05/28 09:47:45;;;;;;;17.10;11.33;;;14.20;98.30;;;;;;4039832;29;20537;-79
2021/05/28 09:49:49;;;;;;;10.90;8.90;;;14.50;98.30;;;;;;4040157;29;20477;-81
2021/05/28 09:52:05;;;;;;;12.87;9.10;;;14.70;98.30;;;;;;4038386;29;20484;-81
2021/05/28 09:54:16;;;;;;;14.87;9.40;;;14.80;98.30;;;;;;4039836;29;20508;-80
2021/05/28 09:56:24;;;;;;;12.63;9.20;;;14.90;98.30;;;;;;4038553;29;20469;-79
2021/05/28 09:58:49;;;;;;;11.40;8.83;;;14.90;98.30;;;;;;4039290;29;20476;-80
2021/05/28 10:00:51;;;;;;;12.20;9.40;;;14.80;98.30;;;;;;4039938;29;20499;-79
2021/05/28 10:03:10;;;;;;;13.17;9.73;;;14.80;98.30;;;;;;4040571;29;20501;-80
2021/05/28 10:05:21;;;;;;;11.47;9.30;;;14.70;98.30;;;;;;4040129;29;20499;-80
2021/05/28 10:07:25;;;;;;;15.07;10.80;;;14.60;98.30;;;;;;4040717;29;20922;-80
2021/05/28 10:09:29;;;;;;;14.20;9.20;;;14.60;98.30;;;;;;4040358;29;20481;-82
2021/05/28 10:11:32;;;;;;;16.03;10.30;;;14.50;98.30;;;;;;4041590;29;20483;-80
2021/05/28 10:13:35;;;;;;;11.27;9.70;;;14.60;98.30;;;;;;4045928;29;20501;-80
2021/05/28 10:15:39;;;;;;;11.73;9.80;;;14.70;98.30;;;;;;4043073;29;20498;-80
2021/05/28 10:17:42;;;;;;;13.17;9.50;;;14.70;98.30;;;;;;4039573;29;20824;-80
2021/05/28 10:19:45;;;;;;;29.00;22.20;;;14.80;98.30;;;;;;4039336;29;20562;-80
2021/05/28 10:21:48;;;;;;;29.83;21.33;;;15.00;98.30;;;;;;4038344;29;20485;-82
2021/05/28 10:23:51;;;;;;;14.37;10.30;;;15.20;98.30;;;;;;4038047;29;20501;-80
2021/05/28 10:25:56;;;;;;;14.23;9.07;;;15.30;98.30;;;;;;4039017;29;20484;-79
2021/05/28 10:28:00;;;;;;;12.73;8.70;;;15.20;98.30;;;;;;4039456;29;20491;-80
2021/05/28 10:30:13;;;;;;;10.63;7.87;;;15.40;98.30;;;;;;4039602;29;20576;-80
2021/05/28 10:32:16;;;;;;;12.40;8.23;;;15.50;98.30;;;;;;4039262;29;20489;-80
2021/05/28 10:34:19;;;;;;;11.97;7.83;;;15.70;98.30;;;;;;4039232;29;20469;-80
2021/05/28 10:36:40;;;;;;;13.57;9.20;;;15.70;98.30;;;;;;4040073;29;20474;-80
2021/05/28 10:38:48;;;;;;;11.27;8.40;;;15.70;98.30;;;;;;4039892;29;20469;-81
2021/05/28 10:40:51;;;;;;;11.40;8.67;;;15.60;98.30;;;;;;4039751;29;20491;-80
2021/05/28 10:42:59;;;;;;;11.47;7.63;;;15.50;98.30;;;;;;4040332;29;20489;-80
2021/05/28 10:45:02;;;;;;;13.30;8.60;;;15.30;98.30;;;;;;4040592;29;20514;-80
2021/05/28 10:47:22;;;;;;;12.50;7.80;;;15.50;98.30;;;;;;4038499;29;20473;-81
2021/05/28 10:49:43;;;;;;;13.37;7.83;;;15.80;98.30;;;;;;4038657;29;20512;-80
2021/05/28 10:52:06;;;;;;;11.43;8.50;;;16.10;98.30;;;;;;4038860;29;20473;-81
2021/05/28 10:54:25;;;;;;;12.30;8.63;;;16.20;98.30;;;;;;4037653;29;20978;-80
2021/05/28 10:56:29;;;;;;;13.87;8.20;;;16.20;98.30;;;;;;4037654;29;20484;-79
2021/05/28 10:58:49;;;;;;;13.07;8.70;;;16.10;98.30;;;;;;4036741;29;20505;-80
2021/05/28 11:00:51;;;;;;;15.43;9.63;;;15.90;98.30;;;;;;4039072;29;20847;-80
2021/05/28 11:03:10;;;;;;;14.03;8.70;;;15.90;98.30;;;;;;4039073;29;20497;-80
2021/05/28 11:05:13;;;;;;;17.00;9.90;;;15.90;98.30;;;;;;4036841;29;20531;-80
2021/05/28 11:07:16;;;;;;;16.00;9.83;;;16.00;98.30;;;;;;4039049;29;20472;-80
2021/05/28 11:09:19;;;;;;;10.70;8.73;;;16.10;98.30;;;;;;4039186;29;20489;-81
2021/05/28 11:11:55;;;;;;;18.17;8.50;;;16.20;98.30;;;;;;4038912;29;20481;-80
2021/05/28 11:13:59;;;;;;;13.03;8.00;;;16.20;98.30;;;;;;4038759;29;21042;-80
2021/05/28 11:16:02;;;;;;;13.03;7.80;;;16.50;98.30;;;;;;4038635;29;20480;-80
2021/05/28 11:18:13;;;;;;;13.83;8.63;;;16.80;98.30;;;;;;4038735;29;20460;-80
2021/05/28 11:20:24;;;;;;;9.87;7.23;;;16.80;98.30;;;;;;4038797;29;20481;-80
2021/05/28 11:22:32;;;;;;;12.30;7.80;;;16.70;98.30;;;;;;4039587;29;20504;-80
2021/05/28 11:24:43;;;;;;;12.57;7.77;;;16.70;98.30;;;;;;4039529;29;20505;-80
2021/05/28 11:26:46;;;;;;;12.93;7.33;;;16.80;98.30;;;;;;4039878;29;20461;-80
2021/05/28 11:28:54;;;;;;;11.40;7.77;;;17.00;98.30;;;;;;4039902;29;20911;-80
2021/05/28 11:30:59;;;;;;;12.70;7.37;;;17.20;98.30;;;;;;4039902;29;20533;-80
2021/05/28 11:33:03;;;;;;;10.37;7.60;;;17.20;98.30;;;;;;4039581;29;20493;-80
2021/05/28 11:35:10;;;;;;;12.53;7.60;;;17.20;98.30;;;;;;4039078;29;20552;-80
2021/05/28 11:37:39;;;;;;;12.63;7.63;;;17.10;98.30;;;;;;4039190;29;20477;-80
2021/05/28 11:39:42;;;;;;;13.00;8.40;;;16.90;98.30;;;;;;4039445;29;20473;-80
2021/05/28 11:41:47;;;;;;;14.07;7.83;;;16.70;98.30;;;;;;4038733;29;20481;-80
2021/05/28 11:43:49;;;;;;;12.30;7.87;;;16.60;98.30;;;;;;4039259;29;20488;-80
2021/05/28 11:45:55;;;;;;;24.47;14.07;;;16.70;98.30;;;;;;4039200;29;20500;-81
2021/05/28 11:47:59;;;;;;;24.43;17.23;;;16.70;98.30;;;;;;4039914;29;20492;-80
2021/05/28 11:50:03;;;;;;;31.33;21.43;;;17.00;98.30;;;;;;4039378;29;20529;-79
2021/05/28 11:52:08;;;;;;;15.63;10.50;;;17.30;98.30;;;;;;4039295;29;20730;-80
2021/05/28 11:54:21;;;;;;;18.10;9.30;;;17.50;98.30;;;;;;4037651;29;20466;-80
2021/05/28 11:56:24;;;;;;;15.20;8.70;;;17.70;98.30;;;;;;4038229;29;21359;-81
2021/05/28 11:58:29;;;;;;;9.63;7.90;;;17.50;98.30;;;;;;4040034;29;20568;-80
2021/05/28 12:00:32;;;;;;;10.97;6.77;;;17.60;98.30;;;;;;4039999;29;20524;-80
2021/05/28 12:02:47;;;;;;;11.87;7.87;;;17.40;98.30;;;;;;4040153;29;20500;-80
2021/05/28 12:04:52;;;;;;;9.60;6.87;;;17.60;98.30;;;;;;4039622;29;20504;-79
2021/05/28 12:06:54;;;;;;;14.13;8.00;;;17.50;98.30;;;;;;4039274;29;20477;-80
2021/05/28 12:08:59;;;;;;;10.03;7.47;;;17.40;98.30;;;;;;4039797;29;20572;-80
2021/05/28 12:11:03;;;;;;;10.90;6.60;;;17.60;98.30;;;;;;4040171;29;20469;-79
2021/05/28 12:13:07;;;;;;;11.57;7.67;;;17.90;98.30;;;;;;4040366;29;20580;-80
2021/05/28 12:15:10;;;;;;;8.03;6.87;;;17.90;98.30;;;;;;4040807;29;20484;-80
2021/05/28 12:17:30;;;;;;;11.90;8.20;;;17.60;98.30;;;;;;4041331;29;20520;-81
2021/05/28 12:19:40;;;;;;;9.47;6.83;;;17.40;98.30;;;;;;4040506;29;20567;-80
2021/05/28 12:21:43;;;;;;;12.03;7.40;;;17.20;98.30;;;;;;4040648;29;20994;-80
2021/05/28 12:23:47;;;;;;;13.27;9.40;;;17.10;98.30;;;;;;4039313;29;21034;-80
2021/05/28 12:25:52;;;;;;;19.97;14.40;;;17.50;98.30;;;;;;4039877;29;20508;-80
2021/05/28 12:28:10;;;;;;;45.37;32.20;;;17.90;98.30;;;;;;4041027;29;20477;-80
2021/05/28 12:30:15;;;;;;;11.57;8.60;;;18.00;98.30;;;;;;4041080;29;20476;-82
2021/05/28 12:32:18;;;;;;;13.37;8.20;;;17.90;98.30;;;;;;4041133;29;20484;-80
2021/05/28 12:34:20;;;;;;;8.50;7.67;;;17.80;98.30;;;;;;4040595;29;20480;-80
2021/05/28 12:36:27;;;;;;;10.90;7.20;;;17.70;98.30;;;;;;4041836;29;20477;-81
2021/05/28 12:38:35;;;;;;;9.20;7.27;;;17.70;98.30;;;;;;4041056;29;20480;-80
2021/05/28 12:40:43;;;;;;;8.37;7.30;;;17.60;98.30;;;;;;4040587;29;20496;-81
2021/05/28 12:42:54;;;;;;;14.10;8.37;;;17.60;98.30;;;;;;4041353;29;20513;-81
2021/05/28 12:45:08;;;;;;;10.53;7.33;;;17.80;98.30;;;;;;4041514;29;20500;-80
2021/05/28 12:47:11;;;;;;;8.60;7.30;;;17.80;98.30;;;;;;4042054;29;20473;-80
2021/05/28 12:49:15;;;;;;;10.93;7.90;;;17.60;98.30;;;;;;4041662;29;20481;-80
2021/05/28 12:51:19;;;;;;;11.93;7.40;;;17.70;98.30;;;;;;4041584;29;20502;-81
2021/05/28 12:53:22;;;;;;;12.63;7.17;;;17.70;98.30;;;;;;4041225;29;20512;-80
2021/05/28 12:55:34;;;;;;;10.40;7.03;;;17.40;98.30;;;;;;4041887;29;20469;-79
2021/05/28 12:57:36;;;;;;;10.30;7.10;;;17.10;98.30;;;;;;4040374;29;20481;-80
2021/05/28 12:59:40;;;;;;;10.93;7.23;;;17.30;98.30;;;;;;4040532;29;20483;-80
2021/05/28 13:01:42;;;;;;;10.57;6.90;;;17.80;98.30;;;;;;4040930;29;20487;-80
2021/05/28 13:03:49;;;;;;;9.23;6.90;;;18.90;98.30;;;;;;4039765;29;20554;-80
2021/05/28 13:05:52;;;;;;;10.53;6.97;;;19.70;95.80;;;;;;4041052;29;20878;-81
2021/05/28 13:07:54;;;;;;;9.23;7.17;;;19.60;96.20;;;;;;4041173;29;20472;-81
2021/05/28 13:09:57;;;;;;;11.60;6.67;;;19.60;95.00;;;;;;4041042;29;20567;-80
2021/05/28 13:12:07;;;;;;;11.60;6.33;;;19.60;94.80;;;;;;4041629;29;20488;-79
2021/05/28 13:14:18;;;;;;;11.90;6.97;;;20.00;96.00;;;;;;4040773;29;20484;-80
2021/05/28 13:16:25;;;;;;;10.77;7.30;;;20.60;94.10;;;;;;4042110;29;20912;-80
2021/05/28 13:18:40;;;;;;;9.57;7.00;;;20.80;92.20;;;;;;4042303;29;20476;-80
2021/05/28 13:20:43;;;;;;;15.43;7.67;;;20.30;93.70;;;;;;4040509;29;20477;-80
2021/05/28 13:22:48;;;;;;;11.87;7.97;;;19.10;96.50;;;;;;4039842;29;20511;-79
2021/05/28 13:24:50;;;;;;;10.60;7.70;;;17.80;98.30;;;;;;4040100;29;20516;-80
2021/05/28 13:26:55;;;;;;;14.87;7.60;;;17.70;98.30;;;;;;4039488;29;20485;-80
2021/05/28 13:29:06;;;;;;;15.77;7.73;;;17.70;98.30;;;;;;4040102;29;21075;-81
2021/05/28 13:31:12;;;;;;;9.87;7.20;;;17.90;98.30;;;;;;4039881;29;20482;-80
2021/05/28 13:33:20;;;;;;;8.77;7.50;;;18.00;98.30;;;;;;4040673;29;20883;-81
2021/05/28 13:35:23;;;;;;;8.53;6.23;;;18.50;98.30;;;;;;4040914;29;20515;-80
2021/05/28 13:40:05;;;;;;;10.33;6.77;;;18.30;98.30;;;;;;4040842;29;20504;-80
2021/05/28 13:42:07;;;;;;;10.53;6.70;;;19.10;97.10;;;;;;4041132;29;20473;-80
2021/05/28 13:44:11;;;;;;;10.20;6.97;;;19.00;95.80;;;;;;4040799;29;20556;-80
2021/05/28 13:51:31;;;;;;;9.93;7.17;;;18.80;98.20;;;;;;4040355;29;20460;-80
2021/05/28 13:55:56;;;;;;;8.90;6.97;;;18.10;97.40;;;;;;4040486;29;20568;-82
2021/05/28 13:58:06;;;;;;;11.17;7.50;;;17.50;98.30;;;;;;4042808;29;20479;-80
2021/05/28 14:00:30;;;;;;;11.07;7.63;;;17.90;98.30;;;;;;4041005;29;20468;-80
2021/05/28 14:02:50;;;;;;;8.27;7.20;;;18.00;98.30;;;;;;4041687;29;20973;-79
2021/05/28 14:05:16;;;;;;;13.27;7.73;;;18.00;98.30;;;;;;4040205;29;20481;-81
2021/05/28 14:07:36;;;;;;;9.30;6.60;;;18.50;98.30;;;;;;4040947;29;20517;-80
2021/05/28 14:09:59;;;;;;;16.20;11.50;;;19.00;97.60;;;;;;4043871;29;20552;-80
2021/05/28 14:12:20;;;;;;;23.83;16.50;;;19.10;96.90;;;;;;4040728;29;20536;-80
2021/05/28 14:14:25;;;;;;;9.30;6.80;;;19.00;97.20;;;;;;4040747;29;20489;-80
2021/05/28 14:16:32;;;;;;;10.50;6.30;;;18.70;97.30;;;;;;4041260;29;20487;-79
2021/05/28 14:18:37;;;;;;;8.87;6.47;;;18.60;98.30;;;;;;4041280;29;20823;-80
2021/05/28 14:20:43;;;;;;;11.13;6.60;;;18.50;98.30;;;;;;4040813;29;20571;-80
2021/05/28 14:22:46;;;;;;;10.17;6.50;;;18.70;96.80;;;;;;4038395;29;20504;-80
2021/05/28 14:24:49;;;;;;;9.70;6.80;;;18.90;98.30;;;;;;4039747;29;20541;-80
2021/05/28 14:26:52;;;;;;;8.83;6.03;;;18.40;96.60;;;;;;4040022;29;20481;-82
2021/05/28 14:28:54;;;;;;;8.47;5.30;;;18.00;97.70;;;;;;4040019;29;20489;-80
2021/05/28 14:30:57;;;;;;;7.23;5.03;;;18.10;98.10;;;;;;4039657;29;21044;-80
2021/05/28 14:33:02;;;;;;;6.60;5.20;;;18.20;97.80;;;;;;4040155;29;20913;-80
2021/05/28 14:35:06;;;;;;;9.23;4.43;;;18.20;97.70;;;;;;4039710;29;20465;-80
2021/05/28 14:37:09;;;;;;;7.20;5.00;;;18.20;95.90;;;;;;4039713;29;20485;-80
2021/05/28 14:39:12;;;;;;;10.37;5.43;;;18.00;96.80;;;;;;4038630;29;20470;-81
2021/05/28 14:41:15;;;;;;;6.70;5.60;;;17.60;97.10;;;;;;4039887;29;20472;-80
2021/05/28 14:43:17;;;;;;;7.40;5.70;;;17.50;98.30;;;;;;4040078;29;20870;-79
2021/05/28 14:45:21;;;;;;;6.70;5.10;;;17.70;98.20;;;;;;4040418;29;20524;-81
2021/05/28 14:47:23;;;;;;;8.27;5.77;;;17.80;98.10;;;;;;4041208;29;20540;-80
2021/05/28 14:49:27;;;;;;;8.80;5.13;;;17.70;97.60;;;;;;4041503;29;21049;-82
2021/05/28 14:51:29;;;;;;;10.63;5.10;;;17.60;98.20;;;;;;4040229;29;20816;-80
2021/05/28 15:11:26;;;;;;;6.67;5.63;;;16.80;98.30;;;;;;3934860;30;20485;-82
2021/05/28 15:13:30;;;;;;;9.47;6.10;;;16.60;98.30;;;;;;3956304;30;21034;-81
2021/05/28 15:15:33;;;;;;;10.83;5.33;;;16.50;98.30;;;;;;3967799;29;20474;-81
2021/05/28 15:17:35;;;;;;;5.67;5.07;;;16.60;98.30;;;;;;4057476;29;20482;-82
2021/05/28 15:19:39;;;;;;;10.00;6.53;;;16.60;98.30;;;;;;4072989;29;20481;-82
2021/05/28 15:21:49;;;;;;;6.70;5.00;;;16.70;98.30;;;;;;4071428;29;20478;-81
2021/05/28 15:23:52;;;;;;;10.20;5.83;;;16.60;98.30;;;;;;4071592;29;20957;-82
2021/05/28 15:25:55;;;;;;;6.97;5.47;;;16.50;98.30;;;;;;4068754;29;20550;-83
2021/05/28 15:27:57;;;;;;;17.30;8.33;;;16.40;98.30;;;;;;4077458;29;20474;-82
2021/05/28 15:30:00;;;;;;;10.60;6.20;;;16.30;98.30;;;;;;4071403;29;20518;-82
2021/05/28 15:32:09;;;;;;;9.77;6.53;;;16.20;98.30;;;;;;4073771;29;20728;-84
2021/05/28 15:34:12;;;;;;;11.13;6.90;;;16.10;98.30;;;;;;4076588;29;20483;-82
2021/05/28 15:36:15;;;;;;;9.80;6.30;;;16.00;98.30;;;;;;4073851;29;20214;-82
2021/05/28 15:38:21;;;;;;;8.60;5.97;;;15.90;98.30;;;;;;4075498;29;20477;-82
2021/05/28 15:40:27;;;;;;;10.20;5.30;;;15.80;98.30;;;;;;4076079;29;20500;-82
2021/05/28 15:42:31;;;;;;;7.30;6.00;;;15.60;98.30;;;;;;4074076;29;20539;-82
2021/05/28 15:44:36;;;;;;;8.40;5.67;;;15.60;98.30;;;;;;4075597;29;20995;-82
2021/05/28 15:46:39;;;;;;;6.73;5.43;;;15.60;98.30;;;;;;4076656;29;20586;-82
2021/05/28 15:48:41;;;;;;;8.70;6.23;;;15.60;98.30;;;;;;4071476;29;20508;-82
2021/05/28 15:50:44;;;;;;;7.53;5.47;;;15.70;98.30;;;;;;4075309;29;20471;-82
2021/05/28 15:52:51;;;;;;;12.90;5.73;;;15.60;98.30;;;;;;4079163;29;20517;-82
2021/05/28 15:54:55;;;;;;;8.87;5.77;;;15.60;98.30;;;;;;4075178;29;20529;-83
2021/05/28 15:56:58;;;;;;;8.20;5.80;;;15.50;98.30;;;;;;4075805;29;20466;-82
2021/05/28 15:59:08;;;;;;;10.27;5.80;;;15.60;98.30;;;;;;4078179;29;20470;-82
2021/05/28 16:01:30;;;;;;;8.47;5.50;;;15.60;98.30;;;;;;4075302;29;20471;-82
2021/05/28 16:03:35;;;;;;;5.67;4.83;;;15.70;98.30;;;;;;4097484;29;21262;-82
2021/05/28 16:05:41;;;;;;;7.30;5.33;;;15.50;98.30;;;;;;4091508;29;21348;-82
2021/05/28 16:08:07;;;;;;;12.20;6.60;;;15.50;98.30;;;;;;4095563;29;20551;-82
2021/05/28 16:10:12;;;;;;;9.83;6.20;;;15.40;98.30;;;;;;4095794;29;20519;-82
2021/05/28 16:12:15;;;;;;;9.50;6.83;;;15.50;98.30;;;;;;4092204;29;21254;-82
2021/05/28 16:14:18;;;;;;;9.83;6.93;;;15.50;98.30;;;;;;4093266;29;21099;-82
2021/05/28 16:16:22;;;;;;;8.23;6.20;;;15.50;98.30;;;;;;4093098;29;20555;-82
2021/05/28 16:18:27;;;;;;;10.60;5.90;;;15.50;98.30;;;;;;4095452;29;20562;-82
2021/05/28 16:20:32;;;;;;;8.90;5.87;;;15.50;98.30;;;;;;4095036;29;20469;-82
2021/05/28 16:22:35;;;;;;;10.83;5.73;;;15.40;98.30;;;;;;4098914;28;21045;-82
2021/05/28 16:24:58;;;;;;;22.83;15.20;;;15.40;98.30;;;;;;4092165;29;20461;-82
2021/05/28 16:27:03;;;;;;;47.50;27.03;;;15.40;98.30;;;;;;4094134;28;20477;-83
2021/05/28 16:29:07;;;;;;;28.40;18.20;;;15.30;98.30;;;;;;4098788;29;20990;-82
2021/05/28 16:31:11;;;;;;;12.70;6.67;;;15.30;98.30;;;;;;4096777;28;20551;-82
2021/05/28 16:33:21;;;;;;;15.07;7.17;;;15.20;98.30;;;;;;4086477;28;20510;-82
2021/05/28 16:35:24;;;;;;;8.50;6.93;;;15.10;98.30;;;;;;4091371;28;20576;-82
2021/05/28 16:37:30;;;;;;;7.40;6.63;;;15.00;98.30;;;;;;4095212;29;21137;-83
2021/05/28 16:39:33;;;;;;;8.80;6.13;;;15.00;98.30;;;;;;4094114;28;20466;-83
2021/05/28 16:41:48;;;;;;;7.87;6.27;;;15.00;98.30;;;;;;4101751;29;20523;-83
2021/05/28 16:43:54;;;;;;;9.37;6.43;;;15.00;98.30;;;;;;4096269;28;20494;-83
2021/05/28 16:45:57;;;;;;;13.27;6.57;;;15.00;98.30;;;;;;4098257;28;21091;-83
2021/05/28 16:48:02;;;;;;;17.70;10.70;;;15.00;98.30;;;;;;4100225;28;20493;-83
2021/05/28 16:50:08;;;;;;;15.87;10.63;;;14.90;98.30;;;;;;4093725;29;20470;-83
2021/05/28 16:52:13;;;;;;;64.53;42.80;;;14.80;98.30;;;;;;4097079;28;20474;-84
2021/05/28 16:54:20;;;;;;;17.13;10.20;;;14.80;98.30;;;;;;4095419;29;20477;-83
2021/05/28 16:56:26;;;;;;;11.03;6.43;;;14.80;98.30;;;;;;4094130;28;21582;-83
2021/05/28 16:58:30;;;;;;;8.90;6.40;;;14.80;98.30;;;;;;4092011;29;20470;-84
2021/05/28 17:00:35;;;;;;;10.90;7.00;;;14.80;98.30;;;;;;4092437;29;20474;-83
2021/05/28 17:02:41;;;;;;;13.17;7.63;;;14.70;98.30;;;;;;4093168;28;20853;-83
2021/05/28 17:04:44;;;;;;;9.50;6.43;;;14.70;98.30;;;;;;4095502;29;20477;-83
2021/05/28 17:06:49;;;;;;;12.00;6.73;;;14.70;98.30;;;;;;4096750;29;20575;-84
2021/05/28 17:08:52;;;;;;;13.30;7.07;;;14.70;98.30;;;;;;4098539;29;20479;-83
2021/05/28 17:10:56;;;;;;;13.40;7.07;;;14.70;98.30;;;;;;4100336;28;20488;-83
2021/05/28 17:13:03;;;;;;;7.77;6.93;;;14.60;98.30;;;;;;4095214;28;20485;-83
2021/05/28 17:15:16;;;;;;;10.67;7.23;;;14.50;98.30;;;;;;4094510;28;20956;-84
2021/05/28 17:17:19;;;;;;;7.07;5.87;;;14.50;98.30;;;;;;4101128;28;20452;-84
2021/05/28 17:19:23;;;;;;;8.27;5.80;;;14.40;98.30;;;;;;4103883;29;20465;-84
2021/05/28 17:21:26;;;;;;;11.43;6.53;;;14.40;98.30;;;;;;4107573;28;20484;-85
2021/05/28 17:23:29;;;;;;;8.40;5.80;;;14.40;98.30;;;;;;4101844;28;20497;-84
2021/05/28 17:25:47;;;;;;;10.53;6.67;;;14.30;98.30;;;;;;4105557;28;20506;-84
2021/05/28 17:27:51;;;;;;;6.93;6.23;;;14.40;98.30;;;;;;4101877;28;20465;-85
2021/05/28 17:29:54;;;;;;;17.10;7.57;;;14.30;98.30;;;;;;4103064;28;20501;-84
2021/05/28 17:31:57;;;;;;;8.80;6.47;;;14.30;98.30;;;;;;4098037;29;20487;-85
2021/05/28 17:34:03;;;;;;;22.60;9.07;;;14.30;98.30;;;;;;4094180;29;20493;-85
2021/05/28 17:36:18;;;;;;;10.90;6.87;;;14.30;98.30;;;;;;4097609;29;20571;-85
2021/05/28 17:38:26;;;;;;;10.17;7.10;;;14.20;98.30;;;;;;4094949;29;20469;-84
2021/05/28 17:40:42;;;;;;;11.77;6.60;;;14.20;98.30;;;;;;4100262;28;20501;-84
2021/05/28 17:42:48;;;;;;;9.40;6.67;;;14.10;98.30;;;;;;4097441;29;20503;-85
2021/05/28 17:45:10;;;;;;;9.73;6.43;;;14.00;98.30;;;;;;4097360;29;20465;-85
2021/05/28 17:47:18;;;;;;;13.83;7.53;;;13.90;98.30;;;;;;4095317;29;20524;-85
2021/05/28 17:49:25;;;;;;;9.90;7.00;;;13.90;98.30;;;;;;4097906;29;20560;-84
2021/05/28 17:51:37;;;;;;;8.83;6.73;;;13.80;98.30;;;;;;4096371;29;20464;-85
2021/05/28 17:53:48;;;;;;;12.33;7.93;;;13.90;98.30;;;;;;4098030;29;20490;-84
2021/05/28 17:56:04;;;;;;;9.87;6.87;;;13.70;98.30;;;;;;4094278;28;20498;-83
2021/05/28 17:58:09;;;;;;;9.50;7.53;;;13.70;98.30;;;;;;4097233;29;20492;-85
2021/05/28 18:00:26;;;;;;;9.60;7.60;;;13.60;98.30;;;;;;4096217;29;20538;-85
2021/05/28 18:02:38;;;;;;;14.87;8.30;;;13.60;98.30;;;;;;4096154;29;20489;-85
2021/05/28 18:05:33;;;;;;;11.07;8.07;;;13.70;98.30;;;;;;4094204;29;20473;-84
2021/05/28 18:07:44;;;;;;;13.60;7.87;;;13.80;98.30;;;;;;4084744;28;20493;-85
2021/05/28 18:10:09;;;;;;;13.17;7.40;;;13.80;98.30;;;;;;4095552;28;20955;-85